Time;durP1;ratioP1;P1;durP2;ratioP2;P2;SDS_P1;SDS_P2;PMS_P1;PMS_P2;Temp;Humidity;BMP_temperature;BMP_pressure;BME280_temperature;BME280_humidity;BME280_pressure;Samples;Min_cycle;Max_cycle;Signal;HPM_P1;HPM_P2
2023/07/08 00:01:19;;;;;;;807.10;455.70;;;;;;;;;;4993581;28;20484;-53
2023/07/08 00:03:45;;;;;;;806.88;446.92;;;;;;;;;;5045631;28;20021;-53
2023/07/08 00:06:18;;;;;;;808.97;457.05;;;;;;;;;;5045951;28;20444;-54
2023/07/08 00:08:43;;;;;;;803.75;437.80;;;;;;;;;;5045694;28;20025;-50
2023/07/08 00:11:12;;;;;;;800.22;448.75;;;;;;;;;;5044583;28;20472;-55
2023/07/08 00:13:37;;;;;;;805.28;447.90;;;;;;;;;;5037189;28;20096;-55
2023/07/08 00:16:02;;;;;;;796.33;448.48;;;;;;;;;;5045788;28;20135;-53
2023/07/08 00:18:27;;;;;;;802.20;442.45;;;;;;;;;;5045630;28;20100;-51
2023/07/08 00:20:53;;;;;;;802.50;449.63;;;;;;;;;;5045098;28;20033;-54
2023/07/08 00:23:21;;;;;;;797.72;442.67;;;;;;;;;;5045364;28;20456;-50
2023/07/08 00:25:47;;;;;;;802.95;435.35;;;;;;;;;;5044728;28;20021;-50
2023/07/08 00:28:14;;;;;;;803.22;441.63;;;;;;;;;;5043991;28;20475;-48
2023/07/08 00:30:40;;;;;;;801.75;443.08;;;;;;;;;;5044997;28;20118;-49
2023/07/08 00:33:06;;;;;;;796.85;426.55;;;;;;;;;;5044744;28;20457;-52
2023/07/08 00:35:38;;;;;;;766.95;402.30;;;;;;;;;;5044668;28;20029;-52
2023/07/08 00:38:12;;;;;;;779.17;420.42;;;;;;;;;;5044874;28;20116;-53
2023/07/08 00:40:46;;;;;;;794.75;438.30;;;;;;;;;;5044718;28;20480;-54
2023/07/08 00:43:12;;;;;;;794.47;425.92;;;;;;;;;;5044980;28;20053;-53
2023/07/08 00:45:43;;;;;;;796.63;437.38;;;;;;;;;;5045208;28;20445;-55
2023/07/08 00:48:25;;;;;;;790.50;414.23;;;;;;;;;;5044912;28;20036;-49
2023/07/08 00:50:51;;;;;;;791.92;413.75;;;;;;;;;;5044549;28;20025;-52
2023/07/08 00:53:28;;;;;;;794.03;435.30;;;;;;;;;;5044594;28;20821;-54
2023/07/08 00:56:02;;;;;;;799.10;431.77;;;;;;;;;;5045031;28;20025;-51
2023/07/08 00:58:30;;;;;;;792.05;414.15;;;;;;;;;;5044920;28;20077;-55
2023/07/08 01:00:56;;;;;;;794.37;423.87;;;;;;;;;;5044886;28;20043;-50
2023/07/08 01:03:23;;;;;;;789.35;409.08;;;;;;;;;;5045512;28;20025;-52
2023/07/08 01:05:49;;;;;;;791.50;417.58;;;;;;;;;;5044923;28;20029;-53
2023/07/08 01:08:14;;;;;;;799.20;421.77;;;;;;;;;;5044530;28;20036;-55
2023/07/08 01:10:44;;;;;;;794.42;420.73;;;;;;;;;;5044329;28;20017;-53
2023/07/08 01:13:10;;;;;;;794.15;415.73;;;;;;;;;;5044890;28;20485;-53
2023/07/08 01:15:40;;;;;;;788.78;402.65;;;;;;;;;;5044319;28;20083;-54
2023/07/08 01:18:07;;;;;;;793.97;403.55;;;;;;;;;;5044409;28;20047;-52
2023/07/08 01:20:32;;;;;;;802.67;422.98;;;;;;;;;;5044182;28;20032;-55
2023/07/08 01:22:57;;;;;;;805.72;425.20;;;;;;;;;;5044813;28;20416;-54
2023/07/08 01:25:23;;;;;;;795.97;420.83;;;;;;;;;;5044405;28;20742;-52
2023/07/08 01:27:52;;;;;;;808.55;427.08;;;;;;;;;;5044210;28;20035;-53
2023/07/08 01:30:17;;;;;;;801.03;423.65;;;;;;;;;;5044864;28;20024;-54
2023/07/08 01:32:50;;;;;;;795.33;402.27;;;;;;;;;;5044497;28;20033;-52
2023/07/08 01:35:15;;;;;;;796.80;416.40;;;;;;;;;;5044325;28;20078;-54
2023/07/08 01:37:42;;;;;;;795.88;414.77;;;;;;;;;;5044270;28;20037;-52
2023/07/08 01:40:25;;;;;;;794.70;408.48;;;;;;;;;;5045473;28;20130;-50
2023/07/08 01:42:50;;;;;;;796.03;402.50;;;;;;;;;;5012177;28;20583;-55
2023/07/08 01:45:17;;;;;;;795.30;397.90;;;;;;;;;;5048242;28;20127;-53
2023/07/08 01:47:44;;;;;;;800.75;412.13;;;;;;;;;;5047812;28;20469;-55
2023/07/08 01:50:10;;;;;;;805.72;423.25;;;;;;;;;;5047835;28;20170;-54
2023/07/08 01:52:36;;;;;;;802.67;419.30;;;;;;;;;;5048664;28;20053;-52
2023/07/08 01:55:02;;;;;;;801.90;413.67;;;;;;;;;;5047418;28;20118;-51
2023/07/08 01:57:27;;;;;;;799.40;404.77;;;;;;;;;;5046868;28;20080;-54
2023/07/08 01:59:52;;;;;;;796.67;407.70;;;;;;;;;;5047706;28;20032;-52
2023/07/08 02:02:18;;;;;;;800.08;417.85;;;;;;;;;;5047557;28;20427;-54
2023/07/08 02:04:43;;;;;;;806.88;420.92;;;;;;;;;;5011352;28;20040;-54
2023/07/08 02:07:08;;;;;;;801.00;405.02;;;;;;;;;;5047456;28;20451;-51
2023/07/08 02:09:33;;;;;;;799.28;404.60;;;;;;;;;;5047244;28;20021;-48
2023/07/08 02:11:59;;;;;;;796.10;398.25;;;;;;;;;;5047135;28;20024;-51
2023/07/08 02:14:24;;;;;;;804.83;409.05;;;;;;;;;;5047347;28;20028;-53
2023/07/08 02:16:49;;;;;;;797.40;403.48;;;;;;;;;;5047165;28;20131;-51
2023/07/08 02:19:15;;;;;;;796.60;404.05;;;;;;;;;;5047380;28;20021;-51
2023/07/08 02:21:40;;;;;;;795.25;399.75;;;;;;;;;;5047062;28;20052;-52
2023/07/08 02:24:05;;;;;;;792.17;391.85;;;;;;;;;;5047161;28;20481;-52
2023/07/08 02:26:33;;;;;;;796.15;399.83;;;;;;;;;;5046927;28;20021;-50
2023/07/08 02:28:59;;;;;;;800.28;401.77;;;;;;;;;;5046898;28;20025;-52
2023/07/08 02:31:25;;;;;;;798.05;393.65;;;;;;;;;;5046963;28;20091;-52
2023/07/08 02:33:53;;;;;;;793.83;394.33;;;;;;;;;;5047045;28;20025;-51
2023/07/08 02:36:19;;;;;;;793.65;390.20;;;;;;;;;;5046487;28;20391;-51
2023/07/08 02:38:44;;;;;;;787.05;377.58;;;;;;;;;;5046988;28;20387;-50
2023/07/08 02:41:11;;;;;;;789.85;381.45;;;;;;;;;;5046201;28;20024;-52
2023/07/08 02:43:36;;;;;;;790.85;385.98;;;;;;;;;;5046547;28;20093;-50
2023/07/08 02:46:01;;;;;;;793.78;379.98;;;;;;;;;;5046730;28;20265;-51
2023/07/08 02:48:27;;;;;;;788.03;380.80;;;;;;;;;;5047016;28;20028;-51
2023/07/08 02:50:58;;;;;;;790.92;381.02;;;;;;;;;;5045850;28;20075;-50
2023/07/08 02:53:23;;;;;;;796.72;375.38;;;;;;;;;;5045794;28;20528;-51
2023/07/08 02:55:48;;;;;;;789.08;366.00;;;;;;;;;;5046418;28;20067;-51
2023/07/08 02:58:14;;;;;;;791.78;371.40;;;;;;;;;;5046258;28;20029;-49
2023/07/08 03:00:39;;;;;;;794.25;376.10;;;;;;;;;;5046419;28;20052;-50
2023/07/08 03:03:04;;;;;;;789.03;359.38;;;;;;;;;;4994291;28;20538;-53
2023/07/08 03:05:30;;;;;;;785.08;357.33;;;;;;;;;;5046229;28;20075;-51
2023/07/08 03:07:56;;;;;;;786.35;368.70;;;;;;;;;;5045915;28;20476;-55
2023/07/08 03:10:21;;;;;;;790.33;369.50;;;;;;;;;;5046218;28;20579;-52
2023/07/08 03:12:46;;;;;;;781.70;359.00;;;;;;;;;;5045911;28;20075;-52
2023/07/08 03:15:12;;;;;;;789.40;363.85;;;;;;;;;;5045220;28;20029;-55
2023/07/08 03:17:37;;;;;;;795.75;371.13;;;;;;;;;;5045594;28;20105;-52
2023/07/08 03:20:05;;;;;;;790.78;371.10;;;;;;;;;;5045471;28;20388;-52
2023/07/08 03:22:30;;;;;;;787.38;368.17;;;;;;;;;;5045633;28;20493;-53
2023/07/08 03:24:56;;;;;;;802.03;375.17;;;;;;;;;;5045277;28;20021;-53
2023/07/08 03:27:21;;;;;;;782.67;363.88;;;;;;;;;;5028055;28;20029;-54
2023/07/08 03:29:46;;;;;;;789.08;375.13;;;;;;;;;;5045403;28;20032;-51
2023/07/08 03:32:12;;;;;;;785.05;360.10;;;;;;;;;;5046006;28;20037;-52
2023/07/08 03:34:37;;;;;;;781.00;357.60;;;;;;;;;;5045831;28;20028;-49
2023/07/08 03:37:03;;;;;;;785.85;358.15;;;;;;;;;;5045481;28;20033;-51
2023/07/08 03:39:28;;;;;;;786.88;369.27;;;;;;;;;;5045624;28;20025;-50
2023/07/08 03:41:54;;;;;;;786.03;365.88;;;;;;;;;;5045516;28;20549;-51
2023/07/08 03:44:19;;;;;;;785.88;367.05;;;;;;;;;;5045377;28;20025;-50
2023/07/08 03:46:45;;;;;;;786.72;370.05;;;;;;;;;;5045196;28;20421;-53
2023/07/08 03:49:11;;;;;;;789.25;375.58;;;;;;;;;;5045647;28;20083;-51
2023/07/08 03:51:37;;;;;;;791.70;374.98;;;;;;;;;;5044935;28;20099;-52
2023/07/08 03:54:03;;;;;;;790.53;382.58;;;;;;;;;;5045106;28;20391;-51
2023/07/08 03:56:29;;;;;;;786.08;370.95;;;;;;;;;;5045302;28;20158;-51
2023/07/08 03:58:55;;;;;;;791.17;380.80;;;;;;;;;;5045103;28;20024;-51
2023/07/08 04:01:21;;;;;;;797.38;398.98;;;;;;;;;;5045172;28;20476;-51
2023/07/08 04:03:47;;;;;;;798.80;398.20;;;;;;;;;;5044765;28;20025;-52
2023/07/08 04:06:12;;;;;;;799.83;406.90;;;;;;;;;;5045082;28;20031;-51
2023/07/08 04:08:38;;;;;;;795.78;403.35;;;;;;;;;;5045020;28;20107;-54
2023/07/08 04:11:03;;;;;;;802.03;408.73;;;;;;;;;;5045057;28;20021;-53
2023/07/08 04:13:28;;;;;;;794.95;401.15;;;;;;;;;;5044749;28;20075;-51
2023/07/08 04:15:56;;;;;;;807.55;434.95;;;;;;;;;;5044373;28;20472;-52
2023/07/08 04:18:21;;;;;;;806.75;427.65;;;;;;;;;;5044795;28;20440;-53
2023/07/08 04:20:52;;;;;;;811.50;447.25;;;;;;;;;;5044715;28;20089;-49
2023/07/08 04:23:17;;;;;;;807.40;454.23;;;;;;;;;;5044990;28;20021;-53
2023/07/08 04:25:43;;;;;;;809.13;459.30;;;;;;;;;;5044571;28;20095;-52
2023/07/08 04:28:08;;;;;;;819.35;481.55;;;;;;;;;;5044595;28;20021;-53
2023/07/08 04:30:33;;;;;;;822.95;491.05;;;;;;;;;;5024887;28;20529;-53
2023/07/08 04:32:58;;;;;;;813.35;472.40;;;;;;;;;;5044541;28;20059;-53
2023/07/08 04:35:24;;;;;;;818.92;487.67;;;;;;;;;;5044778;28;20037;-51
2023/07/08 04:37:49;;;;;;;822.17;496.25;;;;;;;;;;5044655;28;20021;-55
2023/07/08 04:40:19;;;;;;;827.00;515.90;;;;;;;;;;5024821;28;20033;-51
2023/07/08 04:42:47;;;;;;;832.90;521.92;;;;;;;;;;5044861;28;20021;-52
2023/07/08 04:45:12;;;;;;;826.88;516.90;;;;;;;;;;5044559;28;20075;-50
2023/07/08 04:47:37;;;;;;;838.17;552.97;;;;;;;;;;5044045;28;20468;-54
2023/07/08 04:50:03;;;;;;;840.90;561.35;;;;;;;;;;5044137;28;20036;-55
2023/07/08 04:52:28;;;;;;;846.42;573.83;;;;;;;;;;5043850;28;20555;-52
2023/07/08 04:54:53;;;;;;;844.60;580.97;;;;;;;;;;5044258;28;20037;-51
2023/07/08 04:57:20;;;;;;;858.13;614.05;;;;;;;;;;5044233;28;20027;-55
2023/07/08 04:59:46;;;;;;;867.47;635.47;;;;;;;;;;5044235;28;20020;-52
2023/07/08 05:02:11;;;;;;;859.75;636.03;;;;;;;;;;5044055;28;20021;-51
2023/07/08 05:04:36;;;;;;;830.95;588.47;;;;;;;;;;5044222;28;20035;-51
2023/07/08 05:07:02;;;;;;;861.10;646.22;;;;;;;;;;5044254;28;20020;-54
2023/07/08 05:09:27;;;;;;;869.50;668.22;;;;;;;;;;5044137;28;20500;-54
2023/07/08 05:11:52;;;;;;;868.88;676.58;;;;;;;;;;5024836;28;20468;-53
2023/07/08 05:14:18;;;;;;;882.45;705.72;;;;;;;;;;5044096;28;20028;-55
2023/07/08 05:16:43;;;;;;;886.22;716.33;;;;;;;;;;5012433;28;20037;-54
2023/07/08 05:19:09;;;;;;;890.65;717.60;;;;;;;;;;5048444;28;20591;-53
2023/07/08 05:21:34;;;;;;;885.40;725.78;;;;;;;;;;5047886;28;20028;-52
2023/07/08 05:24:03;;;;;;;883.25;715.08;;;;;;;;;;5047434;28;20337;-50
2023/07/08 05:26:28;;;;;;;;;;;;;;;;;;5030189;28;20852;-53
2023/07/08 05:28:54;;;;;;;885.27;732.03;;;;;;;;;;5048531;28;20327;-51
2023/07/08 05:31:19;;;;;;;890.70;721.22;;;;;;;;;;5047385;28;20266;-55
2023/07/08 05:33:44;;;;;;;883.28;720.75;;;;;;;;;;5047522;28;20029;-53
2023/07/08 05:36:09;;;;;;;898.28;746.05;;;;;;;;;;5047961;28;20491;-56
2023/07/08 05:38:35;;;;;;;884.70;733.17;;;;;;;;;;5047352;28;20039;-51
2023/07/08 05:41:00;;;;;;;896.17;758.65;;;;;;;;;;5047410;28;20021;-54
2023/07/08 05:43:26;;;;;;;893.63;757.60;;;;;;;;;;5047480;28;20303;-49
2023/07/08 05:45:51;;;;;;;904.53;796.35;;;;;;;;;;5047596;28;20054;-53
2023/07/08 05:48:16;;;;;;;902.72;781.35;;;;;;;;;;5047944;28;20021;-54
2023/07/08 05:50:42;;;;;;;917.78;796.63;;;;;;;;;;5047544;28;20029;-51
2023/07/08 05:53:10;;;;;;;908.92;794.67;;;;;;;;;;5047064;28;20053;-50
2023/07/08 05:55:35;;;;;;;908.40;793.95;;;;;;;;;;5047675;28;20029;-52
2023/07/08 05:58:00;;;;;;;910.83;795.10;;;;;;;;;;5047220;28;20083;-51
2023/07/08 06:00:26;;;;;;;907.33;798.08;;;;;;;;;;5047425;28;20512;-56
2023/07/08 06:02:51;;;;;;;914.92;798.58;;;;;;;;;;5047161;28;20020;-54
2023/07/08 06:05:16;;;;;;;940.25;837.47;;;;;;;;;;5047220;28;20108;-50
2023/07/08 06:07:42;;;;;;;940.22;836.42;;;;;;;;;;5047372;28;20072;-54
2023/07/08 06:10:07;;;;;;;948.00;844.33;;;;;;;;;;5047064;28;20021;-53
2023/07/08 06:12:32;;;;;;;964.25;859.35;;;;;;;;;;5047038;28;20457;-51
2023/07/08 06:14:58;;;;;;;961.80;857.33;;;;;;;;;;5046942;28;20021;-51
2023/07/08 06:17:23;;;;;;;975.83;871.00;;;;;;;;;;5046907;28;20033;-55
2023/07/08 06:19:48;;;;;;;977.30;872.47;;;;;;;;;;5047263;28;20076;-53
2023/07/08 06:22:14;;;;;;;970.40;865.72;;;;;;;;;;5046780;28;20025;-56
2023/07/08 06:24:39;;;;;;;984.10;878.35;;;;;;;;;;5046842;28;20525;-56
2023/07/08 06:27:04;;;;;;;989.30;883.67;;;;;;;;;;5046644;28;20075;-53
2023/07/08 06:29:30;;;;;;;996.33;889.63;;;;;;;;;;5046514;28;20078;-52
2023/07/08 06:31:55;;;;;;;998.22;891.53;;;;;;;;;;5046591;28;20036;-54
2023/07/08 06:34:23;;;;;;;1013.55;906.47;;;;;;;;;;5046319;28;20079;-51
2023/07/08 06:36:48;;;;;;;1003.25;896.33;;;;;;;;;;5028545;28;20102;-54
2023/07/08 06:39:14;;;;;;;1004.63;898.17;;;;;;;;;;5046943;28;20101;-55
2023/07/08 06:41:39;;;;;;;1014.13;906.58;;;;;;;;;;5046463;28;20075;-52
2023/07/08 06:44:04;;;;;;;1003.35;896.63;;;;;;;;;;5046521;28;20067;-48
2023/07/08 06:46:30;;;;;;;1008.42;901.42;;;;;;;;;;5045861;28;20025;-55
2023/07/08 06:48:55;;;;;;;1010.03;902.92;;;;;;;;;;5046250;28;20057;-54
2023/07/08 06:51:20;;;;;;;1013.67;906.20;;;;;;;;;;5045571;28;20457;-53
2023/07/08 06:53:46;;;;;;;1020.42;912.78;;;;;;;;;;5046189;28;20049;-49
2023/07/08 06:56:11;;;;;;;1021.33;913.78;;;;;;;;;;5046175;28;20044;-54
2023/07/08 06:58:36;;;;;;;1017.42;910.10;;;;;;;;;;5045990;28;20033;-55
2023/07/08 07:01:02;;;;;;;1025.50;917.35;;;;;;;;;;5046074;28;20021;-54
2023/07/08 07:03:27;;;;;;;1019.08;911.70;;;;;;;;;;5045896;28;20029;-53
2023/07/08 07:05:52;;;;;;;1022.13;914.57;;;;;;;;;;5045958;28;20040;-50
2023/07/08 07:08:17;;;;;;;1017.20;909.90;;;;;;;;;;5045738;28;20303;-56
2023/07/08 07:10:43;;;;;;;1021.80;914.45;;;;;;;;;;5045757;28;20594;-53
2023/07/08 07:13:09;;;;;;;1027.60;919.63;;;;;;;;;;5045802;28;20020;-49
2023/07/08 07:15:34;;;;;;;1024.88;916.65;;;;;;;;;;5045543;28;20039;-56
2023/07/08 07:17:59;;;;;;;1028.22;919.20;;;;;;;;;;5045671;28;20151;-52
2023/07/08 07:20:25;;;;;;;1035.20;927.47;;;;;;;;;;5045689;28;20032;-53
2023/07/08 07:22:51;;;;;;;1043.20;934.08;;;;;;;;;;5045591;28;20345;-53
2023/07/08 07:25:17;;;;;;;1031.30;923.08;;;;;;;;;;5045860;28;20031;-50
2023/07/08 07:27:42;;;;;;;1042.70;933.90;;;;;;;;;;5045428;28;20167;-53
2023/07/08 07:30:07;;;;;;;1049.57;940.77;;;;;;;;;;5045426;28;20025;-54
2023/07/08 07:32:34;;;;;;;1033.78;925.67;;;;;;;;;;5045640;28;20656;-56
2023/07/08 07:34:59;;;;;;;1045.38;936.72;;;;;;;;;;5045393;28;20017;-54
2023/07/08 07:37:25;;;;;;;1048.47;939.85;;;;;;;;;;5044580;28;20025;-52
2023/07/08 07:39:50;;;;;;;1032.13;924.00;;;;;;;;;;5045107;28;20025;-54
2023/07/08 07:42:16;;;;;;;1034.37;926.90;;;;;;;;;;5045476;28;20023;-53
2023/07/08 07:44:41;;;;;;;1025.65;918.10;;;;;;;;;;5009340;28;20250;-52
2023/07/08 07:47:07;;;;;;;1035.43;927.75;;;;;;;;;;5045658;28;20112;-54
2023/07/08 07:49:33;;;;;;;1042.45;934.17;;;;;;;;;;5045194;28;20354;-51
2023/07/08 07:51:58;;;;;;;1024.03;916.63;;;;;;;;;;5004927;28;20048;-54
2023/07/08 07:54:23;;;;;;;1035.05;926.97;;;;;;;;;;5024954;28;20029;-55
2023/07/08 07:56:49;;;;;;;1034.90;927.20;;;;;;;;;;5025341;28;20029;-55
2023/07/08 07:59:14;;;;;;;1025.22;917.42;;;;;;;;;;5025210;28;20246;-53
2023/07/08 08:01:41;;;;;;;1025.53;918.37;;;;;;;;;;5025034;28;20041;-52
2023/07/08 08:04:08;;;;;;;1034.15;926.92;;;;;;;;;;5025341;28;20242;-55
2023/07/08 08:06:33;;;;;;;1040.88;932.78;;;;;;;;;;5024751;28;20405;-53
2023/07/08 08:08:58;;;;;;;1053.22;944.70;;;;;;;;;;5024668;28;20021;-55
2023/07/08 08:11:25;;;;;;;1044.88;936.13;;;;;;;;;;5024384;28;20461;-54
2023/07/08 08:13:50;;;;;;;1050.70;941.67;;;;;;;;;;5024889;28;20020;-52
2023/07/08 08:16:16;;;;;;;1044.30;935.92;;;;;;;;;;5024846;28;20433;-55
2023/07/08 08:18:41;;;;;;;1045.47;937.33;;;;;;;;;;5025041;28;20025;-52
2023/07/08 08:21:07;;;;;;;1042.73;934.60;;;;;;;;;;5024977;28;20592;-54
2023/07/08 08:23:32;;;;;;;1046.30;937.35;;;;;;;;;;5024808;28;20247;-51
2023/07/08 08:25:57;;;;;;;1049.10;940.85;;;;;;;;;;4989654;28;20119;-52
2023/07/08 08:28:22;;;;;;;1059.20;949.50;;;;;;;;;;5024666;28;20492;-55
2023/07/08 08:30:49;;;;;;;1056.43;947.03;;;;;;;;;;5024904;28;20026;-54
2023/07/08 08:33:14;;;;;;;1063.32;953.42;;;;;;;;;;5024955;28;20797;-54
2023/07/08 08:35:41;;;;;;;1068.10;957.85;;;;;;;;;;5024544;28;20025;-55
2023/07/08 08:38:06;;;;;;;1075.07;964.45;;;;;;;;;;5024234;28;20033;-52
2023/07/08 08:40:32;;;;;;;1065.10;954.93;;;;;;;;;;5024464;28;20366;-56
2023/07/08 08:43:12;;;;;;;1075.78;965.38;;;;;;;;;;5022752;28;20262;-52
2023/07/08 08:45:58;;;;;;;1085.53;973.97;;;;;;;;;;4969285;28;20288;-56
2023/07/08 08:48:24;;;;;;;1081.38;970.70;;;;;;;;;;5004994;28;20432;-55
2023/07/08 08:50:55;;;;;;;1071.47;961.10;;;;;;;;;;5022916;28;20025;-54
2023/07/08 08:53:21;;;;;;;1065.30;955.53;;;;;;;;;;5039203;28;20057;-52
2023/07/08 08:55:49;;;;;;;1078.55;967.95;;;;;;;;;;5043894;28;20108;-54
2023/07/08 08:58:14;;;;;;;1064.45;954.42;;;;;;;;;;5043997;28;20032;-52
2023/07/08 09:00:50;;;;;;;1066.00;956.05;;;;;;;;;;5044189;28;20428;-54
2023/07/08 09:03:17;;;;;;;1063.75;954.05;;;;;;;;;;5026346;28;20664;-55
2023/07/08 09:05:44;;;;;;;1066.43;956.08;;;;;;;;;;5044281;28;20082;-51
2023/07/08 09:08:12;;;;;;;1040.38;932.42;;;;;;;;;;5044139;28;20033;-54
2023/07/08 09:10:44;;;;;;;1038.38;929.95;;;;;;;;;;5043734;28;20396;-55
2023/07/08 09:13:15;;;;;;;1065.57;955.67;;;;;;;;;;5044009;28;20114;-54
2023/07/08 09:15:40;;;;;;;1072.10;961.88;;;;;;;;;;5043984;28;20025;-54
2023/07/08 09:18:14;;;;;;;1067.20;957.03;;;;;;;;;;5043885;28;20500;-53
2023/07/08 09:20:41;;;;;;;1069.68;959.38;;;;;;;;;;5043694;28;20274;-53
2023/07/08 09:23:16;;;;;;;1074.97;964.60;;;;;;;;;;5044470;28;20150;-56
2023/07/08 09:25:41;;;;;;;1068.45;958.33;;;;;;;;;;5044299;28;20021;-55
2023/07/08 09:28:07;;;;;;;1070.20;959.55;;;;;;;;;;5043804;28;20028;-55
2023/07/08 09:30:33;;;;;;;1068.20;958.85;;;;;;;;;;5044068;28;20017;-53
2023/07/08 09:33:01;;;;;;;1051.88;942.90;;;;;;;;;;5044055;28;20025;-54
2023/07/08 09:35:28;;;;;;;1053.43;945.13;;;;;;;;;;5043836;28;20504;-55
2023/07/08 09:37:54;;;;;;;1049.88;941.83;;;;;;;;;;5043891;28;20064;-55
2023/07/08 09:40:22;;;;;;;1052.47;944.05;;;;;;;;;;5044087;28;20103;-56
2023/07/08 09:42:51;;;;;;;1062.25;953.35;;;;;;;;;;5044315;28;20523;-54
2023/07/08 09:45:18;;;;;;;1041.80;933.22;;;;;;;;;;5042667;28;20043;-53
2023/07/08 09:47:45;;;;;;;1052.82;943.60;;;;;;;;;;5043469;28;20021;-53
2023/07/08 09:50:22;;;;;;;1049.97;941.55;;;;;;;;;;5043809;28;20021;-56
2023/07/08 09:52:48;;;;;;;1048.03;938.88;;;;;;;;;;5043027;28;20056;-56
2023/07/08 09:55:13;;;;;;;1044.88;936.50;;;;;;;;;;5043500;28;20025;-55
2023/07/08 09:57:39;;;;;;;1046.05;937.83;;;;;;;;;;5043438;28;20037;-53
2023/07/08 10:00:11;;;;;;;1049.32;940.70;;;;;;;;;;5043168;28;20037;-55
2023/07/08 10:02:42;;;;;;;1062.00;952.10;;;;;;;;;;5047067;28;20027;-55
2023/07/08 10:05:11;;;;;;;1067.07;956.53;;;;;;;;;;5047281;28;20040;-52
2023/07/08 10:07:37;;;;;;;1075.30;964.95;;;;;;;;;;5046620;28;20099;-55
2023/07/08 10:10:06;;;;;;;1076.23;966.03;;;;;;;;;;5029435;28;20033;-55
2023/07/08 10:12:31;;;;;;;1082.03;971.58;;;;;;;;;;5046940;28;20300;-53
2023/07/08 10:15:03;;;;;;;1081.75;971.30;;;;;;;;;;5046653;28;20025;-54
2023/07/08 10:17:29;;;;;;;1080.53;970.00;;;;;;;;;;5047181;28;20063;-54
2023/07/08 10:19:55;;;;;;;1072.95;963.10;;;;;;;;;;5046587;28;20017;-54
2023/07/08 10:22:39;;;;;;;1065.57;956.13;;;;;;;;;;5046996;28;20071;-56
2023/07/08 10:25:23;;;;;;;1060.97;951.60;;;;;;;;;;5046557;28;20028;-54
2023/07/08 10:27:57;;;;;;;1072.28;962.53;;;;;;;;;;5046807;28;20444;-51
2023/07/08 10:30:27;;;;;;;1072.60;962.58;;;;;;;;;;5046359;28;20017;-53
2023/07/08 10:33:01;;;;;;;1060.70;951.72;;;;;;;;;;5046410;28;20104;-53
2023/07/08 10:35:26;;;;;;;1058.03;949.10;;;;;;;;;;5046203;28;20029;-53
2023/07/08 10:37:51;;;;;;;1057.03;948.00;;;;;;;;;;5046100;28;20024;-54
2023/07/08 10:40:29;;;;;;;1062.25;952.35;;;;;;;;;;5045864;28;20261;-52
2023/07/08 10:42:57;;;;;;;1064.45;955.20;;;;;;;;;;5045995;28;20166;-56
2023/07/08 10:45:25;;;;;;;1062.95;953.38;;;;;;;;;;5046159;28;20107;-53
2023/07/08 10:47:50;;;;;;;1065.55;955.70;;;;;;;;;;5046170;28;20029;-54
2023/07/08 10:50:15;;;;;;;1070.23;960.20;;;;;;;;;;5045595;28;20419;-52
2023/07/08 10:52:41;;;;;;;1052.77;944.23;;;;;;;;;;5045834;28;20080;-56
2023/07/08 10:55:19;;;;;;;1059.57;950.93;;;;;;;;;;5045552;28;20122;-55
2023/07/08 10:58:03;;;;;;;1059.40;949.88;;;;;;;;;;5046127;28;20079;-56
2023/07/08 11:00:39;;;;;;;1060.88;951.72;;;;;;;;;;5046138;28;20032;-52
2023/07/08 11:03:16;;;;;;;1063.53;954.08;;;;;;;;;;5045835;28;20013;-56
2023/07/08 11:05:45;;;;;;;1056.22;947.35;;;;;;;;;;5045943;28;20029;-54
2023/07/08 11:08:19;;;;;;;1047.63;939.47;;;;;;;;;;5046035;28;20075;-54
2023/07/08 11:10:44;;;;;;;1051.43;942.63;;;;;;;;;;5046248;28;20045;-54
2023/07/08 11:13:15;;;;;;;1047.63;938.57;;;;;;;;;;5044664;28;20499;-55
2023/07/08 11:15:40;;;;;;;1047.90;939.80;;;;;;;;;;5045519;28;20270;-53
2023/07/08 11:18:05;;;;;;;1037.53;929.87;;;;;;;;;;5045084;28;20035;-56
2023/07/08 11:20:48;;;;;;;1039.27;930.90;;;;;;;;;;5045468;28;20265;-56
2023/07/08 11:23:24;;;;;;;1056.93;948.35;;;;;;;;;;5045441;28;20100;-52
2023/07/08 11:25:54;;;;;;;1041.10;933.67;;;;;;;;;;5045513;28;20049;-56
2023/07/08 11:28:21;;;;;;;1046.95;938.58;;;;;;;;;;5045343;28;20028;-55
2023/07/08 11:30:47;;;;;;;1048.22;939.72;;;;;;;;;;5044571;28;20060;-55
2023/07/08 11:33:14;;;;;;;1057.18;948.33;;;;;;;;;;5045505;28;20021;-54
2023/07/08 11:35:50;;;;;;;1059.45;949.83;;;;;;;;;;5044874;28;20025;-54
2023/07/08 11:38:18;;;;;;;1051.32;943.03;;;;;;;;;;5044793;28;20025;-56
2023/07/08 11:40:51;;;;;;;1075.70;965.97;;;;;;;;;;5044993;28;20025;-54
2023/07/08 11:43:16;;;;;;;1055.95;946.95;;;;;;;;;;5044525;28;20028;-52
2023/07/08 11:45:43;;;;;;;1050.50;941.38;;;;;;;;;;5045087;28;20040;-54
2023/07/08 11:48:23;;;;;;;1047.70;938.60;;;;;;;;;;5045028;28;20024;-54
2023/07/08 11:50:51;;;;;;;1048.57;939.63;;;;;;;;;;5045013;28;20040;-52
2023/07/08 11:53:28;;;;;;;1046.15;937.22;;;;;;;;;;5044499;28;20091;-55
2023/07/08 11:55:58;;;;;;;1044.05;935.40;;;;;;;;;;5044758;28;20039;-56
2023/07/08 11:58:24;;;;;;;1054.40;945.35;;;;;;;;;;5045150;28;20029;-54
2023/07/08 12:00:57;;;;;;;1069.95;961.03;;;;;;;;;;5044633;28;20350;-54
2023/07/08 12:03:29;;;;;;;1043.55;935.45;;;;;;;;;;5044523;28;20210;-55
2023/07/08 12:05:56;;;;;;;1021.05;913.80;;;;;;;;;;5044490;28;20025;-54
2023/07/08 12:08:32;;;;;;;1036.43;928.60;;;;;;;;;;5044677;28;20033;-55
2023/07/08 12:10:58;;;;;;;1052.07;943.05;;;;;;;;;;5045087;28;20020;-54
2023/07/08 12:13:24;;;;;;;1060.07;950.50;;;;;;;;;;5044438;28;20064;-55
2023/07/08 12:15:50;;;;;;;1054.43;945.15;;;;;;;;;;5044809;28;20460;-55
2023/07/08 12:18:27;;;;;;;1053.68;943.85;;;;;;;;;;5044483;28;20465;-54
2023/07/08 12:20:54;;;;;;;1052.72;943.67;;;;;;;;;;5044760;28;20520;-54
2023/07/08 12:23:21;;;;;;;1059.35;949.63;;;;;;;;;;5044177;28;20112;-54
2023/07/08 12:25:46;;;;;;;1065.15;955.25;;;;;;;;;;5043832;28;20055;-53
2023/07/08 12:28:12;;;;;;;1071.63;961.33;;;;;;;;;;5044615;28;20013;-55
2023/07/08 12:30:38;;;;;;;1054.03;944.70;;;;;;;;;;5044254;28;20102;-54
2023/07/08 12:33:08;;;;;;;1064.47;954.42;;;;;;;;;;5044506;28;20021;-53
2023/07/08 12:35:34;;;;;;;1063.10;953.35;;;;;;;;;;5043855;28;20029;-51
2023/07/08 12:38:01;;;;;;;1070.60;960.38;;;;;;;;;;5044044;28;20083;-52
2023/07/08 12:40:27;;;;;;;1065.22;955.60;;;;;;;;;;5044308;28;20029;-54
2023/07/08 12:42:53;;;;;;;1054.88;945.33;;;;;;;;;;5044144;28;20013;-53
2023/07/08 12:45:20;;;;;;;1064.80;954.65;;;;;;;;;;5044193;28;20029;-53
2023/07/08 12:47:46;;;;;;;1059.05;949.10;;;;;;;;;;5008198;28;20029;-55
2023/07/08 12:50:12;;;;;;;1047.40;938.60;;;;;;;;;;5043966;28;20516;-50
2023/07/08 12:52:37;;;;;;;1042.03;933.05;;;;;;;;;;5043598;28;20060;-54
2023/07/08 12:55:03;;;;;;;1063.43;953.95;;;;;;;;;;5043973;28;20033;-51
2023/07/08 12:57:28;;;;;;;1050.50;941.65;;;;;;;;;;5044291;28;20523;-56
2023/07/08 12:59:54;;;;;;;1043.38;934.88;;;;;;;;;;5043984;28;20111;-52
2023/07/08 13:02:20;;;;;;;1042.68;934.47;;;;;;;;;;5044374;28;20526;-52
2023/07/08 13:04:46;;;;;;;1040.47;932.13;;;;;;;;;;5043912;28;20056;-53
2023/07/08 13:07:33;;;;;;;1055.30;946.47;;;;;;;;;;5044064;28;20029;-55
2023/07/08 13:09:59;;;;;;;1056.50;947.25;;;;;;;;;;5043667;28;20498;-54
2023/07/08 13:12:25;;;;;;;1046.75;937.63;;;;;;;;;;5044440;28;20017;-56
2023/07/08 13:14:52;;;;;;;1044.30;935.63;;;;;;;;;;5043664;28;20025;-51
2023/07/08 13:17:18;;;;;;;1048.82;939.92;;;;;;;;;;5043554;28;20021;-50
2023/07/08 13:19:44;;;;;;;1048.43;939.75;;;;;;;;;;5061732;28;20020;-55
2023/07/08 13:22:14;;;;;;;1053.85;945.25;;;;;;;;;;5063396;28;20082;-50
2023/07/08 13:24:40;;;;;;;1050.63;942.28;;;;;;;;;;5064042;28;20031;-54
2023/07/08 13:27:08;;;;;;;1047.55;938.53;;;;;;;;;;5063976;28;20013;-53
2023/07/08 13:29:34;;;;;;;1046.65;938.35;;;;;;;;;;5063855;28;20480;-51
2023/07/08 13:32:04;;;;;;;1056.68;947.25;;;;;;;;;;5063719;28;20442;-54
2023/07/08 13:34:32;;;;;;;1052.70;943.42;;;;;;;;;;5055842;28;20028;-55
2023/07/08 13:36:57;;;;;;;1037.90;929.03;;;;;;;;;;5046757;28;20025;-55
2023/07/08 13:39:33;;;;;;;1041.10;931.83;;;;;;;;;;5011650;28;20036;-54
2023/07/08 13:41:58;;;;;;;1044.57;935.63;;;;;;;;;;5047265;28;20025;-53
2023/07/08 13:44:24;;;;;;;1027.78;919.72;;;;;;;;;;5047549;28;20091;-54
2023/07/08 13:46:49;;;;;;;999.33;892.92;;;;;;;;;;4994754;28;20503;-53